sensor_id;sensor_type;location;lat;lon;timestamp;pressure;altitude;pressure_sealevel;temperature;humidity
65010;BME280;51556;50.002;22.014;2023-05-02T00:02:33;99344.87;;;9.84;49.73
65010;BME280;51556;50.002;22.014;2023-05-02T00:05:02;99344.02;;;9.90;49.43
65010;BME280;51556;50.002;22.014;2023-05-02T00:07:27;99349.93;;;9.94;49.64
65010;BME280;51556;50.002;22.014;2023-05-02T00:09:52;99346.38;;;9.95;49.08
65010;BME280;51556;50.002;22.014;2023-05-02T00:12:18;99344.97;;;9.95;49.83
65010;BME280;51556;50.002;22.014;2023-05-02T00:14:43;99342.44;;;9.91;49.71
65010;BME280;51556;50.002;22.014;2023-05-02T00:17:14;99343.94;;;9.86;49.59
65010;BME280;51556;50.002;22.014;2023-05-02T00:19:41;99340.20;;;9.81;49.75
65010;BME280;51556;50.002;22.014;2023-05-02T00:22:06;99339.27;;;9.75;49.69
65010;BME280;51556;50.002;22.014;2023-05-02T00:24:32;99339.55;;;9.70;50.51
65010;BME280;51556;50.002;22.014;2023-05-02T00:26:57;99338.05;;;9.67;49.93
65010;BME280;51556;50.002;22.014;2023-05-02T00:29:23;99339.21;;;9.63;50.34
65010;BME280;51556;50.002;22.014;2023-05-02T00:31:48;99344.52;;;9.61;51.13
65010;BME280;51556;50.002;22.014;2023-05-02T00:34:13;99341.63;;;9.57;50.71
65010;BME280;51556;50.002;22.014;2023-05-02T00:36:38;99345.04;;;9.53;50.91
65010;BME280;51556;50.002;22.014;2023-05-02T00:39:04;99344.27;;;9.48;50.74
65010;BME280;51556;50.002;22.014;2023-05-02T00:41:29;99341.95;;;9.41;51.39
65010;BME280;51556;50.002;22.014;2023-05-02T00:43:55;99345.19;;;9.37;50.87
65010;BME280;51556;50.002;22.014;2023-05-02T00:46:20;99347.70;;;9.35;51.76
65010;BME280;51556;50.002;22.014;2023-05-02T00:48:46;99345.64;;;9.32;51.58
65010;BME280;51556;50.002;22.014;2023-05-02T00:51:11;99344.91;;;9.26;51.94
65010;BME280;51556;50.002;22.014;2023-05-02T00:53:37;99344.48;;;9.21;51.79
65010;BME280;51556;50.002;22.014;2023-05-02T00:56:03;99344.72;;;9.18;52.16
65010;BME280;51556;50.002;22.014;2023-05-02T00:58:28;99346.55;;;9.15;52.22
65010;BME280;51556;50.002;22.014;2023-05-02T01:03:30;99350.16;;;9.10;52.88
65010;BME280;51556;50.002;22.014;2023-05-02T01:06:18;99349.89;;;9.05;52.54
65010;BME280;51556;50.002;22.014;2023-05-02T01:08:52;99346.89;;;8.97;52.82
65010;BME280;51556;50.002;22.014;2023-05-02T01:14:05;99344.52;;;8.92;53.30
65010;BME280;51556;50.002;22.014;2023-05-02T01:16:33;99341.39;;;8.91;53.26
65010;BME280;51556;50.002;22.014;2023-05-02T01:19:01;99336.59;;;8.86;53.81
65010;BME280;51556;50.002;22.014;2023-05-02T01:21:29;99337.36;;;8.82;53.78
65010;BME280;51556;50.002;22.014;2023-05-02T01:23:59;99337.24;;;8.79;54.00
65010;BME280;51556;50.002;22.014;2023-05-02T01:26:45;99334.01;;;8.73;53.80
65010;BME280;51556;50.002;22.014;2023-05-02T01:29:15;99334.14;;;8.66;53.59
65010;BME280;51556;50.002;22.014;2023-05-02T01:31:41;99339.12;;;8.62;54.10
65010;BME280;51556;50.002;22.014;2023-05-02T01:34:09;99335.48;;;8.59;54.62
65010;BME280;51556;50.002;22.014;2023-05-02T01:36:34;99336.61;;;8.55;54.19
65010;BME280;51556;50.002;22.014;2023-05-02T01:39:02;99336.88;;;8.60;54.15
65010;BME280;51556;50.002;22.014;2023-05-02T01:41:29;99337.70;;;8.63;54.53
65010;BME280;51556;50.002;22.014;2023-05-02T01:43:58;99338.92;;;8.63;54.40
65010;BME280;51556;50.002;22.014;2023-05-02T01:46:27;99341.90;;;8.64;54.35
65010;BME280;51556;50.002;22.014;2023-05-02T01:48:56;99339.55;;;8.68;54.41
65010;BME280;51556;50.002;22.014;2023-05-02T01:51:22;99346.04;;;8.68;55.16
65010;BME280;51556;50.002;22.014;2023-05-02T01:53:49;99342.38;;;8.66;54.62
65010;BME280;51556;50.002;22.014;2023-05-02T01:56:15;99344.64;;;8.67;54.88
65010;BME280;51556;50.002;22.014;2023-05-02T01:58:42;99345.69;;;8.67;55.20
65010;BME280;51556;50.002;22.014;2023-05-02T02:01:08;99346.41;;;8.66;55.28
65010;BME280;51556;50.002;22.014;2023-05-02T02:03:33;99349.48;;;8.61;55.47
65010;BME280;51556;50.002;22.014;2023-05-02T02:05:59;99356.04;;;8.57;54.95
65010;BME280;51556;50.002;22.014;2023-05-02T02:08:25;99358.46;;;8.59;54.88
65010;BME280;51556;50.002;22.014;2023-05-02T02:10:53;99358.15;;;8.57;55.38
65010;BME280;51556;50.002;22.014;2023-05-02T02:13:28;99358.04;;;8.54;55.38
65010;BME280;51556;50.002;22.014;2023-05-02T02:15:58;99357.96;;;8.49;55.05
65010;BME280;51556;50.002;22.014;2023-05-02T02:18:25;99355.58;;;8.45;55.79
65010;BME280;51556;50.002;22.014;2023-05-02T02:20:51;99358.08;;;8.42;55.91
65010;BME280;51556;50.002;22.014;2023-05-02T02:23:18;99354.40;;;8.42;56.39
65010;BME280;51556;50.002;22.014;2023-05-02T02:25:45;99354.61;;;8.40;56.38
65010;BME280;51556;50.002;22.014;2023-05-02T02:28:10;99353.64;;;8.35;56.71
65010;BME280;51556;50.002;22.014;2023-05-02T02:30:36;99354.71;;;8.33;56.75
65010;BME280;51556;50.002;22.014;2023-05-02T02:33:01;99358.92;;;8.31;56.52
65010;BME280;51556;50.002;22.014;2023-05-02T02:35:34;99356.34;;;8.29;57.20
65010;BME280;51556;50.002;22.014;2023-05-02T02:38:07;99354.64;;;8.25;56.60
65010;BME280;51556;50.002;22.014;2023-05-02T02:40:46;99356.63;;;8.21;57.02
65010;BME280;51556;50.002;22.014;2023-05-02T02:43:22;99354.56;;;8.19;56.78
65010;BME280;51556;50.002;22.014;2023-05-02T02:53:32;99350.67;;;7.99;57.05
65010;BME280;51556;50.002;22.014;2023-05-02T02:58:35;99360.38;;;7.94;57.68
65010;BME280;51556;50.002;22.014;2023-05-02T03:01:03;99364.80;;;7.92;57.47
65010;BME280;51556;50.002;22.014;2023-05-02T03:03:31;99367.95;;;7.92;57.81
65010;BME280;51556;50.002;22.014;2023-05-02T03:05:57;99370.61;;;7.89;57.89
65010;BME280;51556;50.002;22.014;2023-05-02T03:08:23;99373.80;;;7.87;58.46
65010;BME280;51556;50.002;22.014;2023-05-02T03:10:48;99374.40;;;7.82;58.59
65010;BME280;51556;50.002;22.014;2023-05-02T03:13:14;99374.81;;;7.79;58.50
65010;BME280;51556;50.002;22.014;2023-05-02T03:18:17;99377.47;;;7.78;58.95
65010;BME280;51556;50.002;22.014;2023-05-02T03:20:43;99375.89;;;7.77;58.94
65010;BME280;51556;50.002;22.014;2023-05-02T03:23:08;99379.56;;;7.78;59.04
65010;BME280;51556;50.002;22.014;2023-05-02T03:25:33;99375.67;;;7.80;58.48
65010;BME280;51556;50.002;22.014;2023-05-02T03:27:59;99374.11;;;7.79;59.27
65010;BME280;51556;50.002;22.014;2023-05-02T03:30:24;99374.48;;;7.78;59.24
65010;BME280;51556;50.002;22.014;2023-05-02T03:32:50;99380.11;;;7.77;59.64
65010;BME280;51556;50.002;22.014;2023-05-02T03:35:15;99385.04;;;7.75;59.25
65010;BME280;51556;50.002;22.014;2023-05-02T03:37:41;99385.09;;;7.71;59.27
65010;BME280;51556;50.002;22.014;2023-05-02T03:40:06;99385.80;;;7.70;59.42
65010;BME280;51556;50.002;22.014;2023-05-02T03:42:33;99389.13;;;7.70;59.93
65010;BME280;51556;50.002;22.014;2023-05-02T03:45:04;99396.71;;;7.67;59.82
65010;BME280;51556;50.002;22.014;2023-05-02T03:47:30;99399.53;;;7.65;59.80
65010;BME280;51556;50.002;22.014;2023-05-02T03:49:55;99401.48;;;7.63;59.98
65010;BME280;51556;50.002;22.014;2023-05-02T03:52:21;99400.98;;;7.61;60.52
65010;BME280;51556;50.002;22.014;2023-05-02T03:54:47;99405.52;;;7.62;60.28
65010;BME280;51556;50.002;22.014;2023-05-02T03:57:12;99407.60;;;7.64;60.97
65010;BME280;51556;50.002;22.014;2023-05-02T03:59:38;99408.31;;;7.63;60.89
65010;BME280;51556;50.002;22.014;2023-05-02T04:02:05;99404.83;;;7.62;60.38
65010;BME280;51556;50.002;22.014;2023-05-02T04:04:31;99406.58;;;7.62;60.40
65010;BME280;51556;50.002;22.014;2023-05-02T04:06:56;99406.77;;;7.61;60.62
65010;BME280;51556;50.002;22.014;2023-05-02T04:09:21;99410.06;;;7.63;60.54
65010;BME280;51556;50.002;22.014;2023-05-02T04:11:49;99409.83;;;7.68;60.77
65010;BME280;51556;50.002;22.014;2023-05-02T04:14:15;99411.84;;;7.76;60.74
65010;BME280;51556;50.002;22.014;2023-05-02T04:16:40;99409.83;;;7.80;61.06
65010;BME280;51556;50.002;22.014;2023-05-02T04:19:05;99413.63;;;7.83;60.64
65010;BME280;51556;50.002;22.014;2023-05-02T04:21:30;99411.30;;;7.88;60.64
65010;BME280;51556;50.002;22.014;2023-05-02T04:23:59;99413.14;;;7.93;60.89
65010;BME280;51556;50.002;22.014;2023-05-02T04:26:25;99416.58;;;7.99;60.37
65010;BME280;51556;50.002;22.014;2023-05-02T04:28:53;99419.66;;;8.04;60.31
65010;BME280;51556;50.002;22.014;2023-05-02T04:31:30;99422.80;;;8.05;60.47
65010;BME280;51556;50.002;22.014;2023-05-02T04:33:55;99425.63;;;8.05;61.01
65010;BME280;51556;50.002;22.014;2023-05-02T04:36:21;99427.66;;;8.09;60.94
65010;BME280;51556;50.002;22.014;2023-05-02T04:38:46;99431.27;;;8.15;60.56
65010;BME280;51556;50.002;22.014;2023-05-02T04:41:11;99427.73;;;8.17;60.41
65010;BME280;51556;50.002;22.014;2023-05-02T04:43:37;99429.38;;;8.23;60.49
65010;BME280;51556;50.002;22.014;2023-05-02T04:46:02;99425.80;;;8.27;60.32
65010;BME280;51556;50.002;22.014;2023-05-02T04:48:28;99431.02;;;8.30;60.52
65010;BME280;51556;50.002;22.014;2023-05-02T04:50:53;99429.08;;;8.34;60.85
65010;BME280;51556;50.002;22.014;2023-05-02T04:53:20;99431.31;;;8.36;60.91
65010;BME280;51556;50.002;22.014;2023-05-02T04:55:46;99433.51;;;8.43;60.83
65010;BME280;51556;50.002;22.014;2023-05-02T04:58:11;99438.30;;;8.50;60.51
65010;BME280;51556;50.002;22.014;2023-05-02T05:00:37;99433.96;;;8.56;60.98
65010;BME280;51556;50.002;22.014;2023-05-02T05:03:02;99440.20;;;8.61;61.16
65010;BME280;51556;50.002;22.014;2023-05-02T05:05:28;99438.39;;;8.65;61.18
65010;BME280;51556;50.002;22.014;2023-05-02T05:07:53;99442.02;;;8.68;61.33
65010;BME280;51556;50.002;22.014;2023-05-02T05:10:19;99440.90;;;8.73;60.99
65010;BME280;51556;50.002;22.014;2023-05-02T05:12:44;99444.65;;;8.80;60.48
65010;BME280;51556;50.002;22.014;2023-05-02T05:15:10;99443.84;;;8.86;60.69
65010;BME280;51556;50.002;22.014;2023-05-02T05:17:35;99447.52;;;8.94;60.91
65010;BME280;51556;50.002;22.014;2023-05-02T05:20:02;99450.17;;;9.04;60.76
65010;BME280;51556;50.002;22.014;2023-05-02T05:22:27;99446.51;;;9.13;60.47
65010;BME280;51556;50.002;22.014;2023-05-02T05:24:53;99445.16;;;9.20;60.08
65010;BME280;51556;50.002;22.014;2023-05-02T05:27:18;99440.70;;;9.24;60.63
65010;BME280;51556;50.002;22.014;2023-05-02T05:29:44;99437.55;;;9.30;61.63
65010;BME280;51556;50.002;22.014;2023-05-02T05:32:09;99439.34;;;9.38;61.06
65010;BME280;51556;50.002;22.014;2023-05-02T05:34:34;99441.41;;;9.49;60.77
65010;BME280;51556;50.002;22.014;2023-05-02T05:37:00;99437.23;;;9.57;61.01
65010;BME280;51556;50.002;22.014;2023-05-02T05:39:28;99436.97;;;9.68;60.60
65010;BME280;51556;50.002;22.014;2023-05-02T05:41:53;99437.66;;;9.78;61.27
65010;BME280;51556;50.002;22.014;2023-05-02T05:44:19;99438.80;;;9.90;60.28
65010;BME280;51556;50.002;22.014;2023-05-02T05:46:46;99440.62;;;10.03;59.92
65010;BME280;51556;50.002;22.014;2023-05-02T05:49:11;99438.75;;;10.17;60.00
65010;BME280;51556;50.002;22.014;2023-05-02T05:51:37;99439.70;;;10.30;60.01
65010;BME280;51556;50.002;22.014;2023-05-02T05:54:02;99440.59;;;10.44;59.45
65010;BME280;51556;50.002;22.014;2023-05-02T05:56:28;99446.02;;;10.60;59.35
65010;BME280;51556;50.002;22.014;2023-05-02T05:58:53;99440.48;;;10.78;58.90
65010;BME280;51556;50.002;22.014;2023-05-02T06:01:19;99441.31;;;10.93;58.89
65010;BME280;51556;50.002;22.014;2023-05-02T06:03:44;99437.98;;;11.07;59.17
65010;BME280;51556;50.002;22.014;2023-05-02T06:06:10;99436.27;;;11.23;58.73
65010;BME280;51556;50.002;22.014;2023-05-02T06:11:13;99431.73;;;11.54;58.62
65010;BME280;51556;50.002;22.014;2023-05-02T06:13:39;99433.23;;;11.69;58.48
65010;BME280;51556;50.002;22.014;2023-05-02T06:16:04;99433.71;;;11.84;58.45
65010;BME280;51556;50.002;22.014;2023-05-02T06:18:30;99429.50;;;12.01;58.51
65010;BME280;51556;50.002;22.014;2023-05-02T06:20:55;99432.91;;;12.17;58.45
65010;BME280;51556;50.002;22.014;2023-05-02T06:23:21;99434.52;;;12.32;58.61
65010;BME280;51556;50.002;22.014;2023-05-02T06:25:47;99435.34;;;12.45;58.74
65010;BME280;51556;50.002;22.014;2023-05-02T06:28:15;99435.23;;;12.54;58.66
65010;BME280;51556;50.002;22.014;2023-05-02T06:30:40;99432.40;;;12.65;58.82
65010;BME280;51556;50.002;22.014;2023-05-02T06:33:06;99431.61;;;12.79;58.58
65010;BME280;51556;50.002;22.014;2023-05-02T06:35:31;99432.17;;;12.93;58.44
65010;BME280;51556;50.002;22.014;2023-05-02T06:37:56;99427.76;;;13.08;58.05
65010;BME280;51556;50.002;22.014;2023-05-02T06:40:22;99428.50;;;13.24;57.11
65010;BME280;51556;50.002;22.014;2023-05-02T06:42:47;99428.55;;;13.42;56.49
65010;BME280;51556;50.002;22.014;2023-05-02T06:45:13;99429.75;;;13.57;55.79
65010;BME280;51556;50.002;22.014;2023-05-02T06:47:38;99423.88;;;13.72;55.16
65010;BME280;51556;50.002;22.014;2023-05-02T06:50:03;99427.64;;;13.90;54.72
65010;BME280;51556;50.002;22.014;2023-05-02T06:52:29;99425.06;;;14.06;54.12
65010;BME280;51556;50.002;22.014;2023-05-02T06:54:54;99425.98;;;14.24;53.50
65010;BME280;51556;50.002;22.014;2023-05-02T06:57:19;99422.81;;;14.41;53.54
65010;BME280;51556;50.002;22.014;2023-05-02T06:59:45;99419.63;;;14.58;52.93
65010;BME280;51556;50.002;22.014;2023-05-02T07:02:10;99422.39;;;14.74;52.43
65010;BME280;51556;50.002;22.014;2023-05-02T07:04:35;99420.56;;;14.92;52.37
65010;BME280;51556;50.002;22.014;2023-05-02T07:08:51;99413.94;;;15.26;52.30
65010;BME280;51556;50.002;22.014;2023-05-02T07:11:16;99414.47;;;15.46;51.69
65010;BME280;51556;50.002;22.014;2023-05-02T07:13:41;99411.65;;;15.66;51.27
65010;BME280;51556;50.002;22.014;2023-05-02T07:16:07;99412.34;;;15.85;50.47
65010;BME280;51556;50.002;22.014;2023-05-02T07:18:32;99410.05;;;16.04;49.45
65010;BME280;51556;50.002;22.014;2023-05-02T07:20:58;99410.85;;;16.21;48.96
65010;BME280;51556;50.002;22.014;2023-05-02T07:23:25;99413.83;;;16.40;48.47
65010;BME280;51556;50.002;22.014;2023-05-02T07:25:50;99413.95;;;16.59;48.65
65010;BME280;51556;50.002;22.014;2023-05-02T07:28:16;99417.67;;;16.78;47.12
65010;BME280;51556;50.002;22.014;2023-05-02T07:30:41;99411.73;;;16.94;47.74
65010;BME280;51556;50.002;22.014;2023-05-02T07:33:07;99413.39;;;17.09;46.72
65010;BME280;51556;50.002;22.014;2023-05-02T07:35:32;99418.94;;;17.23;46.47
65010;BME280;51556;50.002;22.014;2023-05-02T07:37:58;99420.61;;;17.35;46.21
65010;BME280;51556;50.002;22.014;2023-05-02T07:40:23;99419.91;;;17.48;46.34
65010;BME280;51556;50.002;22.014;2023-05-02T07:42:49;99418.27;;;17.63;46.31
65010;BME280;51556;50.002;22.014;2023-05-02T07:45:15;99417.68;;;17.77;45.40
65010;BME280;51556;50.002;22.014;2023-05-02T07:47:40;99414.13;;;17.90;45.22
65010;BME280;51556;50.002;22.014;2023-05-02T07:50:06;99414.29;;;18.03;44.92
65010;BME280;51556;50.002;22.014;2023-05-02T07:52:32;99415.92;;;18.19;44.92
65010;BME280;51556;50.002;22.014;2023-05-02T07:54:58;99416.70;;;18.33;44.27
65010;BME280;51556;50.002;22.014;2023-05-02T07:57:23;99416.35;;;18.46;43.56
65010;BME280;51556;50.002;22.014;2023-05-02T07:59:58;99418.12;;;18.58;42.89
65010;BME280;51556;50.002;22.014;2023-05-02T08:02:23;99418.52;;;18.70;42.27
65010;BME280;51556;50.002;22.014;2023-05-02T08:04:50;99419.34;;;18.81;42.45
65010;BME280;51556;50.002;22.014;2023-05-02T08:07:16;99415.13;;;18.95;42.90
65010;BME280;51556;50.002;22.014;2023-05-02T08:09:41;99416.13;;;19.11;43.18
65010;BME280;51556;50.002;22.014;2023-05-02T08:12:07;99416.02;;;19.27;43.19
65010;BME280;51556;50.002;22.014;2023-05-02T08:14:33;99418.38;;;19.45;42.90
65010;BME280;51556;50.002;22.014;2023-05-02T08:16:59;99415.63;;;19.58;42.98
65010;BME280;51556;50.002;22.014;2023-05-02T08:19:24;99413.98;;;19.72;42.21
65010;BME280;51556;50.002;22.014;2023-05-02T08:21:50;99409.98;;;19.85;42.26
65010;BME280;51556;50.002;22.014;2023-05-02T08:24:15;99410.85;;;20.00;41.71
65010;BME280;51556;50.002;22.014;2023-05-02T08:26:41;99403.52;;;20.08;41.92
65010;BME280;51556;50.002;22.014;2023-05-02T08:29:06;99403.73;;;20.22;41.76
65010;BME280;51556;50.002;22.014;2023-05-02T08:31:32;99403.54;;;20.33;41.98
65010;BME280;51556;50.002;22.014;2023-05-02T08:33:58;99397.86;;;20.46;41.22
65010;BME280;51556;50.002;22.014;2023-05-02T08:36:23;99398.36;;;20.60;41.24
65010;BME280;51556;50.002;22.014;2023-05-02T08:38:49;99402.74;;;20.73;40.73
65010;BME280;51556;50.002;22.014;2023-05-02T08:41:16;99392.31;;;20.81;39.99
65010;BME280;51556;50.002;22.014;2023-05-02T08:43:43;99391.42;;;20.86;39.44
65010;BME280;51556;50.002;22.014;2023-05-02T08:46:10;99395.56;;;20.94;39.67
65010;BME280;51556;50.002;22.014;2023-05-02T08:48:39;99397.40;;;21.04;39.94
65010;BME280;51556;50.002;22.014;2023-05-02T08:51:10;99395.64;;;21.16;39.81
65010;BME280;51556;50.002;22.014;2023-05-02T08:53:36;99397.94;;;21.30;39.79
65010;BME280;51556;50.002;22.014;2023-05-02T08:56:03;99401.56;;;21.45;39.70
65010;BME280;51556;50.002;22.014;2023-05-02T08:58:28;99396.00;;;21.53;38.26
65010;BME280;51556;50.002;22.014;2023-05-02T09:01:00;99394.44;;;21.60;37.76
65010;BME280;51556;50.002;22.014;2023-05-02T09:03:31;99399.12;;;21.62;36.79
65010;BME280;51556;50.002;22.014;2023-05-02T09:06:08;99397.59;;;21.58;37.03
65010;BME280;51556;50.002;22.014;2023-05-02T09:08:35;99394.52;;;21.58;37.33
65010;BME280;51556;50.002;22.014;2023-05-02T09:11:02;99400.12;;;21.68;37.92
65010;BME280;51556;50.002;22.014;2023-05-02T09:16:12;99402.20;;;21.86;37.87
65010;BME280;51556;50.002;22.014;2023-05-02T09:18:42;99401.78;;;21.97;37.00
65010;BME280;51556;50.002;22.014;2023-05-02T09:21:12;99402.80;;;22.04;36.37
65010;BME280;51556;50.002;22.014;2023-05-02T09:23:43;99399.80;;;22.08;36.28
65010;BME280;51556;50.002;22.014;2023-05-02T09:26:12;99398.45;;;22.19;36.75
65010;BME280;51556;50.002;22.014;2023-05-02T09:31:16;99397.42;;;22.35;36.31
65010;BME280;51556;50.002;22.014;2023-05-02T09:33:42;99397.80;;;22.40;35.37
65010;BME280;51556;50.002;22.014;2023-05-02T09:36:13;99394.80;;;22.40;35.58
65010;BME280;51556;50.002;22.014;2023-05-02T09:38:40;99397.61;;;22.47;35.77
65010;BME280;51556;50.002;22.014;2023-05-02T09:41:07;99395.61;;;22.53;35.69
65010;BME280;51556;50.002;22.014;2023-05-02T09:43:32;99396.04;;;22.54;34.93
65010;BME280;51556;50.002;22.014;2023-05-02T09:46:05;99390.73;;;22.63;35.46
65010;BME280;51556;50.002;22.014;2023-05-02T09:48:50;99407.98;;;22.72;34.73
65010;BME280;51556;50.002;22.014;2023-05-02T09:51:17;99403.70;;;22.77;34.56
65010;BME280;51556;50.002;22.014;2023-05-02T09:53:43;99401.57;;;22.82;34.37
65010;BME280;51556;50.002;22.014;2023-05-02T09:56:10;99395.91;;;22.87;34.36
65010;BME280;51556;50.002;22.014;2023-05-02T09:58:35;99395.58;;;22.92;33.03
65010;BME280;51556;50.002;22.014;2023-05-02T10:01:01;99395.34;;;22.93;33.85
65010;BME280;51556;50.002;22.014;2023-05-02T10:03:27;99396.66;;;23.03;34.05
65010;BME280;51556;50.002;22.014;2023-05-02T10:05:54;99389.06;;;23.11;33.11
65010;BME280;51556;50.002;22.014;2023-05-02T10:08:23;99386.45;;;23.17;32.94
65010;BME280;51556;50.002;22.014;2023-05-02T10:10:52;99388.32;;;23.18;32.52
65010;BME280;51556;50.002;22.014;2023-05-02T10:13:20;99385.60;;;23.25;33.37
65010;BME280;51556;50.002;22.014;2023-05-02T10:16:09;99385.11;;;23.37;33.18
65010;BME280;51556;50.002;22.014;2023-05-02T10:18:57;99374.21;;;23.45;33.09
65010;BME280;51556;50.002;22.014;2023-05-02T10:21:27;99371.33;;;23.52;32.41
65010;BME280;51556;50.002;22.014;2023-05-02T10:23:53;99368.11;;;23.59;32.78
65010;BME280;51556;50.002;22.014;2023-05-02T10:26:19;99367.19;;;23.71;32.63
65010;BME280;51556;50.002;22.014;2023-05-02T10:28:50;99371.29;;;23.82;32.28
65010;BME280;51556;50.002;22.014;2023-05-02T10:31:17;99365.56;;;23.93;31.94
65010;BME280;51556;50.002;22.014;2023-05-02T10:33:43;99364.97;;;24.00;32.48
65010;BME280;51556;50.002;22.014;2023-05-02T10:36:11;99364.55;;;24.14;32.43
65010;BME280;51556;50.002;22.014;2023-05-02T10:38:39;99357.83;;;24.26;32.30
65010;BME280;51556;50.002;22.014;2023-05-02T10:41:14;99356.63;;;24.39;32.02
65010;BME280;51556;50.002;22.014;2023-05-02T10:43:45;99356.78;;;24.56;32.11
65010;BME280;51556;50.002;22.014;2023-05-02T10:49:11;99345.92;;;24.76;30.43
65010;BME280;51556;50.002;22.014;2023-05-02T10:51:39;99349.02;;;24.86;30.44
65010;BME280;51556;50.002;22.014;2023-05-02T10:54:22;99346.47;;;24.93;30.47
65010;BME280;51556;50.002;22.014;2023-05-02T11:00:19;99345.43;;;25.12;28.95
65010;BME280;51556;50.002;22.014;2023-05-02T11:06:09;99342.33;;;25.42;28.76
